Jacksonville, FL (32228)

6:02 PM EDT on August 03, 2015 (GMT -0400)
Mayport Naval Station / Adm. David L. McDonald Field | | Change Station
CLOSE
Current Station
Airport
Location: Mayport NS,
Elevation: 16 ft
Nearby Weather Stations

Elev 16 ft 30.39 °N, 81.42 °W | Updated 10 minutes ago

Overcast
Overcast
80 °F
Feels Like 86 °F
N
8
Wind Variable Wind from SSW

Today
High -- | Low -- °F
--% Chance of Precip.
Yesterday
High -- | Low -- °F
Precip. -- in
6:45 AM 8:18 PM
Waning Gibbous, 83% visible
Pressure 29.86 in
Visibility 10.0 miles
Clouds Scattered Clouds 800 ft
Mostly Cloudy 2500 ft
Overcast 5500 ft
Heat Index 86 °F
Dew Point 78 °F
Humidity 94%
Rainfall 0.29 in
Snow Depth Not available.
UV 1 out of 12
Pollen 2.50 out of 12
Air Quality Not available.
Flu Activity Not available.
METAR KNRB 032152Z 21007KT 10SM SCT008 BKN025 OVC055 27/26 A2986 RMK AO2 RAB03E50 TSE01B02E23B48E50 SLP112 CB DSNT N T1 SET P0015 T02670256 $

More Conditions Fewer Conditions

Pressure 29.86 in
Visibility 10.0 miles
Clouds Scattered Clouds 800 ft
Mostly Cloudy 2500 ft
Overcast 5500 ft
Heat Index 86 °F
Dew Point 78 °F
Humidity 94%
Rainfall 0.29 in
Snow Depth Not available.
UV 1 out of 12
Pollen 2.50 out of 12
Air Quality Not available.
Flu Activity Not available.
METAR KNRB 032152Z 21007KT 10SM SCT008 BKN025 OVC055 27/26 A2986 RMK AO2 RAB03E50 TSE01B02E23B48E50 SLP112 CB DSNT N T1 SET P0015 T02670256 $

More Conditions Fewer Conditions

10-Day Weather Forecast

×

Almanac

Astronomy

Aug. 03, 2015 Rise Set
Actual Time
Civil Twilight
Nautical Twilight
Astronomical Twilight
Moon
Length of Visible Light
Length of Day
Tomorrow will be .
, % of the Moon is Illuminated

Today's Extremes

State Highs State Lows

Community

WunderPhotos

Upload Photos

1,843,781 photos uploaded!

WunderBlogs® & News

Nearby

Air Quality

  Air Quality AQ Index Pollutant
Not available.

Snow Depth

Station Depth Elevation

Earthquake Activity

City Distance Mag. Time & Date
Minimum magnitude displayed is 2.5.

Coastal Water Temperatures

Place Temperature

Stations

Nearby Weather Stations

Station Location Temp. Windchill Dew Point Humidity Wind Precip. Elev Updated Type